createdAt,value
2023-03-12T00:00:58.079Z,6.13
2023-03-12T00:02:01.107Z,3.92
2023-03-12T00:03:03.164Z,5.63
2023-03-12T00:04:06.381Z,2.67
2023-03-12T00:05:09.290Z,6.22
2023-03-12T00:06:12.519Z,3.72
2023-03-12T00:07:14.573Z,5.55
2023-03-12T00:08:17.556Z,3.70
2023-03-12T00:09:19.622Z,2.33
2023-03-12T00:10:23.973Z,5.40
2023-03-12T00:11:25.995Z,4.10
2023-03-12T00:12:29.022Z,3.58
2023-03-12T00:13:31.027Z,4.90
2023-03-12T00:14:34.354Z,3.45
2023-03-12T00:15:37.856Z,3.13
2023-03-12T00:16:40.944Z,4.38
2023-03-12T00:17:42.957Z,3.00
2023-03-12T00:18:49.632Z,2.20
2023-03-12T00:19:52.510Z,5.30
2023-03-12T00:20:55.929Z,4.72
2023-03-12T00:21:58.030Z,9.98
2023-03-12T00:23:01.078Z,3.67
2023-03-12T00:24:03.197Z,3.47
2023-03-12T00:25:07.410Z,5.20
2023-03-12T00:26:12.751Z,3.22
2023-03-12T00:27:15.744Z,2.25
2023-03-12T00:28:17.707Z,7.68
2023-03-12T00:29:20.716Z,2.47
2023-03-12T00:30:22.770Z,2.28
2023-03-12T00:31:29.021Z,3.15
2023-03-12T00:32:33.161Z,3.47
2023-03-12T00:33:36.145Z,5.60
2023-03-12T00:34:38.155Z,2.78
2023-03-12T00:35:41.186Z,3.63
2023-03-12T00:36:43.335Z,2.55
2023-03-12T00:37:46.398Z,4.97
2023-03-12T00:38:48.452Z,3.67
2023-03-12T00:39:51.472Z,5.03
2023-03-12T00:40:53.379Z,3.55
2023-03-12T00:41:57.856Z,3.03
2023-03-12T00:42:59.880Z,2.75
2023-03-12T00:44:02.870Z,2.10
2023-03-12T00:45:05.694Z,4.47
2023-03-12T00:46:08.818Z,2.60
2023-03-12T00:47:11.041Z,2.47
2023-03-12T00:48:14.108Z,2.80
2023-03-12T00:49:16.166Z,4.20
2023-03-12T00:50:19.600Z,3.00
2023-03-12T00:51:21.643Z,3.90
2023-03-12T00:52:24.562Z,4.70
2023-03-12T00:53:26.549Z,4.20
2023-03-12T00:54:29.564Z,2.78
2023-03-12T00:55:31.857Z,3.50
2023-03-12T00:56:35.080Z,3.95
2023-03-12T00:57:38.469Z,7.25
2023-03-12T00:58:42.792Z,4.00
2023-03-12T00:59:44.940Z,3.90
2023-03-12T01:00:47.905Z,7.05
2023-03-12T01:01:50.254Z,3.63
2023-03-12T01:02:53.363Z,4.20
2023-03-12T01:03:55.784Z,4.35
2023-03-12T01:04:58.764Z,3.30
2023-03-12T01:06:00.786Z,10.60
2023-03-12T01:07:03.790Z,3.95
2023-03-12T01:08:05.979Z,3.70
2023-03-12T01:09:10.140Z,3.60
2023-03-12T01:10:14.601Z,4.72
2023-03-12T01:11:18.951Z,4.10
2023-03-12T01:12:21.000Z,3.60
2023-03-12T01:13:25.421Z,3.35
2023-03-12T01:14:27.383Z,3.20
2023-03-12T01:15:30.964Z,5.50
2023-03-12T01:16:33.173Z,6.97
2023-03-12T01:17:36.146Z,6.97
2023-03-12T01:18:38.609Z,3.15
2023-03-12T01:19:41.576Z,4.13
2023-03-12T01:20:43.692Z,3.55
2023-03-12T01:21:46.761Z,2.88
2023-03-12T01:22:48.797Z,2.58
2023-03-12T01:23:52.411Z,3.67
2023-03-12T01:24:54.470Z,5.65
2023-03-12T01:25:57.670Z,21.02
2023-03-12T01:26:59.660Z,4.43
2023-03-12T01:28:02.977Z,1.60
2023-03-12T01:29:06.427Z,6.00
2023-03-12T01:30:11.426Z,3.80
2023-03-12T01:31:15.039Z,1.50
2023-03-12T01:32:18.204Z,2.17
2023-03-12T01:33:22.721Z,3.80
2023-03-12T01:34:25.607Z,2.00
2023-03-12T01:35:27.665Z,2.15
2023-03-12T01:36:31.606Z,1.58
2023-03-12T01:37:33.948Z,3.65
2023-03-12T01:38:36.892Z,2.83
2023-03-12T01:39:38.928Z,3.83
2023-03-12T01:40:43.614Z,2.88
2023-03-12T01:41:45.664Z,1.98
2023-03-12T01:44:15.474Z,2.60
2023-03-12T01:45:56.649Z,2.40
2023-03-12T01:46:59.784Z,2.30
2023-03-12T01:48:01.725Z,8.68
2023-03-12T01:49:08.850Z,3.22
2023-03-12T01:50:10.864Z,2.42
2023-03-12T01:51:15.803Z,2.83
2023-03-12T01:52:22.071Z,2.05
2023-03-12T01:53:24.512Z,3.17
2023-03-12T01:54:32.906Z,3.03
2023-03-12T01:55:35.110Z,4.25
2023-03-12T01:56:39.937Z,3.05
2023-03-12T01:57:47.300Z,3.00
2023-03-12T01:58:54.473Z,3.50
2023-03-12T02:00:04.642Z,1.75
2023-03-12T02:01:07.117Z,2.38
2023-03-12T02:02:11.236Z,1.75
2023-03-12T02:03:13.870Z,3.95
2023-03-12T02:04:19.278Z,2.28
2023-03-12T02:05:28.914Z,2.10
2023-03-12T02:06:38.164Z,1.98
2023-03-12T02:07:40.331Z,7.22
2023-03-12T02:08:46.524Z,4.25
2023-03-12T02:09:49.657Z,1.92
2023-03-12T02:10:52.683Z,3.17
2023-03-12T02:11:54.640Z,2.33
2023-03-12T02:12:57.636Z,2.28
2023-03-12T02:13:59.744Z,4.95
2023-03-12T02:15:04.377Z,3.17
2023-03-12T02:16:07.255Z,2.45
2023-03-12T02:17:11.469Z,2.13
2023-03-12T02:18:17.466Z,2.50
2023-03-12T02:19:29.177Z,3.88
2023-03-12T02:20:39.800Z,3.33
2023-03-12T02:21:43.174Z,3.40
2023-03-12T02:22:49.533Z,5.05
2023-03-12T02:23:58.821Z,2.72
2023-03-12T02:25:06.813Z,2.50
2023-03-12T02:26:11.432Z,2.63
2023-03-12T02:27:14.845Z,5.32
2023-03-12T02:28:19.644Z,2.83
2023-03-12T02:29:23.133Z,2.85
2023-03-12T02:30:25.935Z,2.92
2023-03-12T02:31:33.929Z,3.42
2023-03-12T02:32:39.596Z,3.60
2023-03-12T02:33:42.650Z,3.03
2023-03-12T02:34:44.658Z,2.15
2023-03-12T02:35:49.197Z,1.88
2023-03-12T02:36:51.255Z,1.80
2023-03-12T02:37:56.158Z,3.45
2023-03-12T02:38:58.152Z,2.45
2023-03-12T02:40:06.873Z,3.72
2023-03-12T02:41:17.395Z,3.35
2023-03-12T02:42:21.500Z,5.05
2023-03-12T02:43:23.782Z,2.65
2023-03-12T02:44:29.491Z,2.22
2023-03-12T02:45:31.830Z,3.75
2023-03-12T02:46:39.380Z,2.05
2023-03-12T02:47:41.384Z,2.67
2023-03-12T02:48:44.721Z,3.45
2023-03-12T02:49:46.659Z,2.15
2023-03-12T02:50:49.612Z,2.28
2023-03-12T02:51:53.187Z,5.72
2023-03-12T02:52:56.155Z,1.67
2023-03-12T02:53:58.142Z,2.13
2023-03-12T02:55:01.115Z,3.95
2023-03-12T02:56:03.347Z,2.80
2023-03-12T02:57:07.677Z,3.25
2023-03-12T02:58:09.667Z,2.15
2023-03-12T02:59:14.354Z,2.70
2023-03-12T03:00:17.496Z,2.47
2023-03-12T03:01:20.985Z,2.10
2023-03-12T03:02:23.188Z,2.33
2023-03-12T03:03:26.116Z,2.92
2023-03-12T03:04:29.307Z,1.92
2023-03-12T03:05:32.266Z,3.22
2023-03-12T03:06:35.319Z,4.10
2023-03-12T03:07:38.315Z,2.20
2023-03-12T03:08:40.552Z,2.28
2023-03-12T03:09:43.503Z,1.70
2023-03-12T03:10:45.471Z,4.63
2023-03-12T03:11:48.399Z,3.15
2023-03-12T03:12:51.649Z,1.52
2023-03-12T03:13:55.582Z,3.25
2023-03-12T03:14:57.760Z,3.28
2023-03-12T03:16:02.006Z,4.70
2023-03-12T03:17:05.010Z,2.95
2023-03-12T03:18:08.009Z,2.83
2023-03-12T03:19:11.309Z,2.95
2023-03-12T03:20:14.680Z,2.63
2023-03-12T03:21:16.908Z,2.13
2023-03-12T03:22:20.999Z,2.30
2023-03-12T03:23:23.260Z,2.65
2023-03-12T03:24:26.216Z,2.78
2023-03-12T03:25:28.382Z,3.13
2023-03-12T03:26:31.374Z,3.38
2023-03-12T03:27:33.595Z,3.58
2023-03-12T03:28:38.105Z,2.78
2023-03-12T03:29:40.092Z,2.05
2023-03-12T03:30:43.051Z,2.55
2023-03-12T03:31:45.028Z,5.57
2023-03-12T03:32:48.756Z,2.22
2023-03-12T03:33:51.971Z,1.90
2023-03-12T03:34:53.984Z,2.30
2023-03-12T03:35:59.474Z,4.25
2023-03-12T03:37:01.449Z,3.03
2023-03-12T03:38:04.812Z,3.80
2023-03-12T03:39:06.823Z,2.88
2023-03-12T03:40:12.217Z,4.20
2023-03-12T03:41:14.179Z,3.13
2023-03-12T03:42:17.084Z,2.78
2023-03-12T03:43:19.533Z,2.72
2023-03-12T03:44:24.087Z,3.88
2023-03-12T03:45:26.127Z,5.88
2023-03-12T03:46:29.195Z,3.88
2023-03-12T03:47:31.236Z,4.20
2023-03-12T03:48:34.890Z,2.22
2023-03-12T03:49:36.799Z,3.83
2023-03-12T03:50:39.861Z,2.85
2023-03-12T03:51:42.631Z,1.65
2023-03-12T03:52:45.551Z,2.00
2023-03-12T03:53:47.543Z,4.45
2023-03-12T03:54:50.475Z,2.67
2023-03-12T03:55:52.440Z,3.25
2023-03-12T03:56:55.348Z,2.67
2023-03-12T03:57:57.357Z,3.08
2023-03-12T03:59:01.674Z,4.30
2023-03-12T04:00:09.543Z,1.92
2023-03-12T04:01:14.175Z,3.53
2023-03-12T04:02:16.188Z,3.35
2023-03-12T04:03:19.211Z,2.75
2023-03-12T04:04:21.178Z,3.60
2023-03-12T04:05:25.253Z,5.65
2023-03-12T04:06:27.228Z,9.23
2023-03-12T04:07:30.185Z,3.70
2023-03-12T04:08:32.983Z,2.28
2023-03-12T04:09:36.009Z,3.35
2023-03-12T04:10:38.087Z,2.50
2023-03-12T04:11:41.461Z,3.55
2023-03-12T04:12:43.375Z,2.58
2023-03-12T04:13:46.641Z,4.65
2023-03-12T04:14:48.599Z,6.90
2023-03-12T04:15:54.512Z,2.20
2023-03-12T04:16:56.491Z,2.60
2023-03-12T04:17:59.524Z,2.28
2023-03-12T04:19:01.573Z,4.43
2023-03-12T04:20:07.243Z,3.40
2023-03-12T04:21:11.242Z,3.17
2023-03-12T04:22:14.409Z,3.40
2023-03-12T04:23:16.418Z,8.38
2023-03-12T04:24:20.374Z,4.07
2023-03-12T04:25:22.403Z,3.28
2023-03-12T04:26:25.367Z,2.40
2023-03-12T04:27:28.406Z,2.10
2023-03-12T04:28:30.470Z,3.63
2023-03-12T04:29:33.405Z,4.22
2023-03-12T04:30:38.166Z,2.88
2023-03-12T04:31:42.646Z,3.28
2023-03-12T04:32:44.768Z,3.45
2023-03-12T04:33:47.745Z,3.75
2023-03-12T04:34:49.657Z,3.67
2023-03-12T04:35:53.093Z,1.58
2023-03-12T04:36:56.052Z,3.35
2023-03-12T04:37:58.089Z,3.00
2023-03-12T04:39:01.067Z,5.22
2023-03-12T04:40:07.549Z,2.80
2023-03-12T04:41:13.959Z,2.08
2023-03-12T04:42:15.945Z,4.22
2023-03-12T04:43:21.010Z,2.60
2023-03-12T04:44:24.050Z,3.20
2023-03-12T04:45:26.012Z,2.45
2023-03-12T04:46:29.839Z,3.58
2023-03-12T04:47:33.968Z,2.70
2023-03-12T04:48:37.566Z,3.65
2023-03-12T04:49:39.737Z,2.03
2023-03-12T04:50:43.490Z,3.10
2023-03-12T04:51:46.471Z,3.40
2023-03-12T04:52:48.510Z,5.60
2023-03-12T04:53:51.722Z,3.60
2023-03-12T04:54:53.887Z,2.17
2023-03-12T04:55:56.841Z,2.35
2023-03-12T04:56:58.772Z,2.58
2023-03-12T04:58:01.672Z,4.32
2023-03-12T04:59:03.632Z,2.83
2023-03-12T05:00:10.513Z,2.58
2023-03-12T05:01:22.920Z,4.85
2023-03-12T05:02:26.018Z,2.97
2023-03-12T05:03:29.525Z,3.88
2023-03-12T05:04:33.705Z,2.13
2023-03-12T05:05:35.909Z,2.35
2023-03-12T05:06:38.862Z,3.53
2023-03-12T05:07:40.824Z,4.13
2023-03-12T05:08:44.450Z,3.25
2023-03-12T05:09:46.475Z,2.25
2023-03-12T05:10:49.606Z,2.97
2023-03-12T05:11:51.539Z,6.82
2023-03-12T05:12:54.448Z,3.17
2023-03-12T05:13:56.438Z,3.17
2023-03-12T05:14:59.440Z,4.85
2023-03-12T05:16:01.468Z,4.05
2023-03-12T05:17:05.229Z,2.80
2023-03-12T05:18:07.192Z,3.60
2023-03-12T05:19:11.568Z,3.63
2023-03-12T05:20:14.200Z,2.45
2023-03-12T05:21:19.531Z,2.97
2023-03-12T05:22:22.436Z,4.47
2023-03-12T05:23:24.467Z,3.08
2023-03-12T05:24:27.434Z,3.53
2023-03-12T05:25:29.400Z,3.88
2023-03-12T05:26:34.155Z,4.55
2023-03-12T05:27:37.350Z,2.40
2023-03-12T05:28:39.367Z,5.32
2023-03-12T05:29:42.350Z,4.05
2023-03-12T05:30:44.315Z,2.95
2023-03-12T05:31:47.240Z,3.20
2023-03-12T05:32:50.272Z,3.58
2023-03-12T05:33:53.464Z,3.85
2023-03-12T05:34:56.744Z,8.25
2023-03-12T05:35:59.710Z,2.50
2023-03-12T05:37:01.784Z,4.15
2023-03-12T05:38:05.136Z,3.42
2023-03-12T05:39:07.353Z,3.97
2023-03-12T05:40:12.367Z,5.95
2023-03-12T05:41:19.935Z,4.00
2023-03-12T05:42:24.940Z,6.63
2023-03-12T05:43:27.681Z,5.53
2023-03-12T05:44:30.616Z,6.05
2023-03-12T05:45:33.339Z,2.97
2023-03-12T05:46:36.274Z,5.50
2023-03-12T05:47:38.206Z,2.55
2023-03-12T05:48:41.133Z,2.88
2023-03-12T05:49:44.205Z,4.22
2023-03-12T05:50:48.508Z,2.25
2023-03-12T05:51:51.295Z,2.30
2023-03-12T05:52:54.263Z,5.60
2023-03-12T05:53:56.444Z,3.17
2023-03-12T05:54:59.408Z,5.07
2023-03-12T05:56:04.726Z,7.00
2023-03-12T05:57:06.938Z,4.47
2023-03-12T05:58:11.077Z,4.38
2023-03-12T05:59:13.092Z,4.40
2023-03-12T06:00:16.994Z,5.97
2023-03-12T06:01:21.137Z,3.97
2023-03-12T06:02:24.085Z,4.78
2023-03-12T06:03:26.308Z,3.22
2023-03-12T06:04:29.508Z,3.95
2023-03-12T06:05:32.178Z,3.55
2023-03-12T06:06:38.227Z,2.80
2023-03-12T06:07:40.247Z,5.78
2023-03-12T06:08:44.207Z,5.68
2023-03-12T06:09:46.128Z,5.53
2023-03-12T06:10:51.556Z,4.55
2023-03-12T06:11:53.466Z,4.40
2023-03-12T06:12:56.564Z,5.15
2023-03-12T06:13:58.656Z,6.82
2023-03-12T06:15:01.564Z,3.20
2023-03-12T06:16:04.586Z,4.95
2023-03-12T06:17:07.586Z,4.22
2023-03-12T06:18:10.540Z,5.38
2023-03-12T06:19:14.729Z,3.67
2023-03-12T06:20:17.087Z,4.07
2023-03-12T06:21:22.478Z,12.00
2023-03-12T06:22:26.532Z,3.38
2023-03-12T06:23:29.460Z,2.72
2023-03-12T06:24:32.382Z,5.10
2023-03-12T06:25:34.352Z,5.30
2023-03-12T06:26:37.360Z,6.90
2023-03-12T06:27:39.327Z,3.35
2023-03-12T06:28:42.318Z,10.15
2023-03-12T06:29:46.428Z,5.70
2023-03-12T06:30:48.455Z,8.80
2023-03-12T06:31:52.284Z,4.70
2023-03-12T06:32:54.469Z,2.97
2023-03-12T06:33:57.417Z,6.82
2023-03-12T06:35:00.689Z,4.00
2023-03-12T06:36:06.019Z,3.75
2023-03-12T06:37:08.953Z,6.45
2023-03-12T06:38:12.503Z,3.92
2023-03-12T06:39:15.428Z,4.72
2023-03-12T06:40:17.837Z,4.32
2023-03-12T06:41:21.426Z,7.15
2023-03-12T06:42:23.888Z,3.97
2023-03-12T06:43:28.957Z,3.53
2023-03-12T06:44:31.125Z,4.00
2023-03-12T06:45:34.014Z,5.10
2023-03-12T06:46:36.983Z,5.82
2023-03-12T06:47:39.968Z,4.70
2023-03-12T06:48:42.090Z,4.75
2023-03-12T06:49:45.059Z,5.03
2023-03-12T06:50:46.971Z,4.75
2023-03-12T06:51:49.995Z,4.70
2023-03-12T06:52:52.225Z,7.07
2023-03-12T06:53:56.614Z,4.20
2023-03-12T06:54:59.567Z,5.15
2023-03-12T06:56:01.909Z,4.13
2023-03-12T06:57:05.704Z,5.22
2023-03-12T06:58:07.604Z,3.70
2023-03-12T06:59:10.597Z,4.20
2023-03-12T07:00:13.818Z,6.07
2023-03-12T07:01:16.944Z,4.03
2023-03-12T07:02:19.037Z,5.90
2023-03-12T07:03:22.397Z,3.10
2023-03-12T07:04:25.390Z,5.28
2023-03-12T07:05:30.000Z,5.20
2023-03-12T07:06:33.268Z,5.32
2023-03-12T07:07:36.192Z,9.25
2023-03-12T07:08:38.711Z,7.65
2023-03-12T07:09:43.037Z,6.78
2023-03-12T07:10:45.617Z,7.45
2023-03-12T07:11:48.575Z,5.18
2023-03-12T07:12:50.774Z,4.45
2023-03-12T07:13:53.955Z,3.55
2023-03-12T07:14:55.917Z,3.92
2023-03-12T07:15:58.890Z,3.65
2023-03-12T07:17:02.278Z,3.88
2023-03-12T07:18:06.054Z,3.72
2023-03-12T07:19:08.027Z,6.25
2023-03-12T07:20:12.409Z,3.67
2023-03-12T07:21:16.625Z,5.85
2023-03-12T07:22:19.784Z,5.63
2023-03-12T07:23:22.379Z,8.40
2023-03-12T07:24:25.689Z,16.35
2023-03-12T07:25:29.052Z,57.53
2023-03-12T07:26:32.038Z,47.70
2023-03-12T07:27:34.034Z,34.88
2023-03-12T07:28:36.969Z,33.25
2023-03-12T07:29:39.069Z,38.80
2023-03-12T07:30:42.493Z,48.42
2023-03-12T07:31:45.483Z,17.48
2023-03-12T07:32:47.505Z,66.70
2023-03-12T07:33:50.600Z,43.58
2023-03-12T07:34:52.639Z,30.08
2023-03-12T07:35:55.694Z,13.35
2023-03-12T07:36:58.712Z,12.93
2023-03-12T07:38:01.454Z,33.20
2023-03-12T07:39:05.343Z,5.90
2023-03-12T07:40:08.687Z,5.10
2023-03-12T07:41:13.300Z,4.55
2023-03-12T07:42:15.317Z,5.20
2023-03-12T07:43:20.402Z,6.18
2023-03-12T07:44:26.289Z,3.65
2023-03-12T07:45:28.470Z,5.38
2023-03-12T07:46:31.664Z,8.90
2023-03-12T07:47:34.137Z,10.38
2023-03-12T07:48:37.276Z,4.40
2023-03-12T07:49:41.678Z,3.15
2023-03-12T07:50:44.691Z,3.70
2023-03-12T07:51:46.966Z,5.75
2023-03-12T07:52:49.997Z,7.30
2023-03-12T07:53:52.936Z,3.42
2023-03-12T07:54:56.587Z,6.00
2023-03-12T07:55:59.803Z,3.47
2023-03-12T07:57:03.470Z,7.28
2023-03-12T07:58:06.557Z,26.38
2023-03-12T07:59:08.752Z,16.23
2023-03-12T08:00:13.096Z,6.68
2023-03-12T08:01:15.167Z,9.10
2023-03-12T08:02:18.729Z,13.80
2023-03-12T08:03:21.440Z,10.65
2023-03-12T08:04:24.626Z,10.10
2023-03-12T08:05:27.071Z,7.85
2023-03-12T08:06:30.938Z,11.38
2023-03-12T08:07:35.246Z,6.28
2023-03-12T08:08:41.553Z,5.05
2023-03-12T08:09:45.543Z,4.90
2023-03-12T08:10:47.789Z,7.75
2023-03-12T08:11:50.826Z,17.65
2023-03-12T08:12:54.480Z,11.32
2023-03-12T08:13:57.410Z,7.63
2023-03-12T08:14:59.517Z,6.25
2023-03-12T08:16:02.591Z,7.55
2023-03-12T08:17:04.701Z,5.15
2023-03-12T08:18:07.673Z,3.95
2023-03-12T08:19:09.656Z,4.18
2023-03-12T08:20:13.750Z,3.20
2023-03-12T08:21:16.794Z,3.55
2023-03-12T08:22:18.746Z,6.95
2023-03-12T08:23:22.685Z,7.90
2023-03-12T08:24:24.752Z,10.07
2023-03-12T08:25:27.801Z,5.85
2023-03-12T08:26:29.910Z,4.80
2023-03-12T08:27:33.948Z,4.55
2023-03-12T08:28:37.347Z,4.60
2023-03-12T08:29:40.453Z,5.68
2023-03-12T08:30:47.512Z,3.72
2023-03-12T08:32:04.147Z,4.03
2023-03-12T08:33:08.165Z,7.97
2023-03-12T08:34:10.151Z,5.63
2023-03-12T08:35:13.195Z,3.97
2023-03-12T08:36:16.401Z,6.15
2023-03-12T08:37:18.713Z,4.00
2023-03-12T08:38:21.901Z,4.05
2023-03-12T08:39:23.851Z,5.90
2023-03-12T08:40:27.461Z,6.13
2023-03-12T08:41:30.144Z,5.20
2023-03-12T08:42:33.273Z,3.85
2023-03-12T08:43:36.213Z,5.72
2023-03-12T08:44:39.574Z,3.63
2023-03-12T08:45:42.609Z,3.92
2023-03-12T08:46:46.536Z,4.90
2023-03-12T08:47:48.894Z,4.68
2023-03-12T08:48:51.874Z,4.32
2023-03-12T08:49:53.770Z,6.32
2023-03-12T08:50:57.545Z,7.90
2023-03-12T08:51:59.542Z,4.82
2023-03-12T08:53:02.794Z,3.33
2023-03-12T08:54:05.645Z,5.43
2023-03-12T08:55:09.422Z,4.03
2023-03-12T08:56:12.410Z,3.95
2023-03-12T08:57:15.623Z,3.08
2023-03-12T08:58:18.616Z,3.03
2023-03-12T08:59:23.362Z,4.78
2023-03-12T09:00:27.781Z,4.10
2023-03-12T09:01:29.733Z,4.35
2023-03-12T09:02:32.662Z,5.82
2023-03-12T09:03:35.851Z,4.68
2023-03-12T09:04:37.846Z,3.40
2023-03-12T09:05:40.840Z,5.43
2023-03-12T09:06:42.791Z,10.60
2023-03-12T09:07:45.683Z,5.60
2023-03-12T09:08:48.077Z,4.95
2023-03-12T09:09:51.040Z,3.90
2023-03-12T09:10:53.260Z,6.18
2023-03-12T09:11:56.588Z,4.20
2023-03-12T09:12:58.627Z,3.55
2023-03-12T09:14:36.710Z,4.70
2023-03-12T09:15:25.115Z,3.85
2023-03-12T09:16:29.878Z,3.75
2023-03-12T09:17:31.896Z,4.45
2023-03-12T09:18:37.768Z,5.22
2023-03-12T09:19:41.909Z,3.15
2023-03-12T09:20:43.905Z,6.05
2023-03-12T09:21:46.838Z,2.45
2023-03-12T09:22:49.094Z,2.83
2023-03-12T09:23:52.092Z,7.10
2023-03-12T09:24:55.772Z,4.15
2023-03-12T09:25:58.765Z,3.45
2023-03-12T09:27:01.196Z,3.83
2023-03-12T09:28:04.171Z,5.30
2023-03-12T09:29:06.653Z,10.15
2023-03-12T09:30:12.655Z,4.40
2023-03-12T09:31:15.032Z,4.85
2023-03-12T09:32:19.637Z,3.72
2023-03-12T09:33:22.595Z,4.15
2023-03-12T09:34:24.564Z,3.42
2023-03-12T09:35:27.483Z,4.00
2023-03-12T09:36:29.388Z,2.55
2023-03-12T09:37:33.317Z,3.10
2023-03-12T09:38:35.578Z,3.38
2023-03-12T09:39:38.490Z,3.67
2023-03-12T09:40:43.845Z,6.88
2023-03-12T09:41:48.669Z,2.50
2023-03-12T09:42:54.847Z,2.70
2023-03-12T09:44:00.362Z,3.10
2023-03-12T09:45:06.841Z,5.80
2023-03-12T09:46:15.179Z,5.07
2023-03-12T09:47:27.699Z,2.70
2023-03-12T09:48:33.600Z,3.55
2023-03-12T09:49:40.567Z,4.38
2023-03-12T09:50:46.119Z,2.38
2023-03-12T09:51:54.578Z,6.65
2023-03-12T09:53:01.630Z,6.82
2023-03-12T09:54:07.817Z,8.63
2023-03-12T09:55:15.009Z,12.85
2023-03-12T09:56:20.219Z,8.18
2023-03-12T09:57:26.029Z,6.00
2023-03-12T09:58:31.969Z,2.45
2023-03-12T09:59:35.554Z,3.75
2023-03-12T10:00:38.561Z,11.27
2023-03-12T10:01:47.944Z,6.53
2023-03-12T10:03:08.002Z,7.18
2023-03-12T10:04:28.470Z,5.90
2023-03-12T10:05:38.158Z,2.85
2023-03-12T10:06:49.024Z,3.45
2023-03-12T10:07:57.791Z,3.15
2023-03-12T10:09:12.012Z,3.35
2023-03-12T10:10:30.751Z,3.05
2023-03-12T10:11:45.870Z,7.25
2023-03-12T10:13:06.828Z,3.13
2023-03-12T10:14:30.352Z,3.65
2023-03-12T10:15:42.338Z,2.60
2023-03-12T10:16:55.600Z,10.68
2023-03-12T10:18:13.198Z,13.27
2023-03-12T10:19:31.557Z,14.75
2023-03-12T10:20:54.267Z,22.75
2023-03-12T10:22:02.229Z,15.88
2023-03-12T10:23:08.949Z,4.70
2023-03-12T10:24:31.632Z,9.63
2023-03-12T10:25:41.757Z,9.88
2023-03-12T10:26:49.472Z,4.82
2023-03-12T10:27:51.444Z,5.85
2023-03-12T10:29:00.104Z,5.15
2023-03-12T10:30:03.923Z,7.45
2023-03-12T10:31:09.704Z,10.85
2023-03-12T10:32:17.492Z,5.93
2023-03-12T10:33:24.225Z,8.43
2023-03-12T10:34:34.279Z,7.50
2023-03-12T10:35:36.885Z,10.57
2023-03-12T10:36:41.249Z,6.35
2023-03-12T10:37:45.389Z,5.90
2023-03-12T10:38:49.655Z,4.55
2023-03-12T10:39:52.900Z,3.53
2023-03-12T10:40:55.838Z,10.82
2023-03-12T10:42:00.548Z,3.88
2023-03-12T10:43:06.887Z,4.57
2023-03-12T10:44:09.876Z,5.10
2023-03-12T10:45:22.219Z,3.60
2023-03-12T10:46:41.192Z,3.28
2023-03-12T10:47:45.326Z,4.70
2023-03-12T10:48:48.631Z,5.03
2023-03-12T10:49:53.196Z,5.88
2023-03-12T10:51:03.346Z,7.45
2023-03-12T10:52:15.875Z,5.68
2023-03-12T10:53:23.684Z,5.38
2023-03-12T10:54:31.262Z,4.70
2023-03-12T10:55:34.213Z,3.00
2023-03-12T10:56:49.687Z,4.68
2023-03-12T10:57:53.228Z,3.80
2023-03-12T10:58:55.166Z,3.33
2023-03-12T11:00:11.955Z,5.05
2023-03-12T11:01:20.936Z,3.70
2023-03-12T11:02:33.617Z,5.03
2023-03-12T11:03:36.690Z,3.40
2023-03-12T11:04:40.040Z,8.23
2023-03-12T11:05:48.977Z,5.40
2023-03-12T11:07:06.158Z,3.05
2023-03-12T11:08:23.325Z,4.50
2023-03-12T11:09:25.237Z,5.47
2023-03-12T11:10:38.656Z,3.42
2023-03-12T11:11:41.046Z,3.78
2023-03-12T11:12:58.673Z,3.75
2023-03-12T11:14:08.341Z,5.47
2023-03-12T11:15:21.337Z,5.95
2023-03-12T11:16:31.424Z,3.00
2023-03-12T11:17:33.951Z,5.53
2023-03-12T11:18:38.141Z,5.68
2023-03-12T11:19:41.542Z,6.13
2023-03-12T11:20:44.579Z,9.25
2023-03-12T11:21:57.310Z,7.50
2023-03-12T11:23:15.179Z,4.88
2023-03-12T11:24:18.130Z,8.15
2023-03-12T11:25:23.738Z,4.95
2023-03-12T11:26:32.166Z,5.55
2023-03-12T11:27:44.040Z,8.30
2023-03-12T11:28:50.253Z,5.53
2023-03-12T11:29:54.646Z,4.30
2023-03-12T11:30:58.412Z,6.10
2023-03-12T11:32:06.979Z,7.30
2023-03-12T11:33:09.506Z,4.05
2023-03-12T11:34:21.979Z,6.35
2023-03-12T11:35:47.360Z,6.57
2023-03-12T11:37:00.810Z,3.80
2023-03-12T11:38:11.132Z,4.45
2023-03-12T11:39:24.016Z,4.93
2023-03-12T11:40:40.640Z,6.00
2023-03-12T11:41:54.989Z,4.03
2023-03-12T11:43:41.632Z,4.47
2023-03-12T11:44:57.332Z,5.75
2023-03-12T11:46:13.414Z,5.55
2023-03-12T11:47:32.456Z,3.63
2023-03-12T11:48:42.721Z,5.47
2023-03-12T11:50:14.208Z,5.20
2023-03-12T11:51:27.796Z,5.10
2023-03-12T11:52:41.452Z,7.95
2023-03-12T11:53:58.708Z,3.67
2023-03-12T11:55:15.881Z,4.25
2023-03-12T11:56:27.954Z,5.40
2023-03-12T11:57:38.034Z,5.22
2023-03-12T11:58:53.558Z,4.25
2023-03-12T12:00:12.692Z,4.57
2023-03-12T12:01:22.469Z,6.90
2023-03-12T12:02:44.503Z,5.68
2023-03-12T12:04:13.947Z,6.10
2023-03-12T12:05:33.114Z,5.75
2023-03-12T12:06:48.288Z,4.60
2023-03-12T12:08:12.229Z,4.13
2023-03-12T12:09:24.791Z,5.28
2023-03-12T12:10:34.867Z,4.88
2023-03-12T12:11:52.558Z,6.90
2023-03-12T12:13:08.244Z,8.15
2023-03-12T12:14:22.996Z,9.30
2023-03-12T12:15:35.055Z,5.45
2023-03-12T12:16:48.598Z,9.45
2023-03-12T12:18:03.364Z,11.00
2023-03-12T12:19:20.186Z,11.00
2023-03-12T12:20:37.296Z,9.50
2023-03-12T12:21:59.402Z,5.57
2023-03-12T12:23:24.758Z,6.13
2023-03-12T12:24:50.174Z,6.32
2023-03-12T12:26:08.865Z,4.18
2023-03-12T12:27:19.904Z,4.40
2023-03-12T12:28:34.434Z,7.82
2023-03-12T12:29:51.908Z,6.30
2023-03-12T12:31:15.306Z,13.95
2023-03-12T12:32:28.678Z,5.70
2023-03-12T12:33:45.886Z,6.85
2023-03-12T12:35:15.893Z,4.28
2023-03-12T12:36:18.845Z,5.82
2023-03-12T12:37:50.843Z,5.60
2023-03-12T12:39:01.217Z,4.40
2023-03-12T12:40:18.676Z,4.32
2023-03-12T12:41:25.290Z,4.10
2023-03-12T12:42:33.543Z,5.78
2023-03-12T12:43:39.566Z,9.32
2023-03-12T12:44:45.071Z,3.72
2023-03-12T12:45:50.696Z,7.63
2023-03-12T12:46:58.754Z,4.50
2023-03-12T12:48:07.822Z,4.38
2023-03-12T12:49:13.302Z,6.03
2023-03-12T12:50:21.144Z,6.82
2023-03-12T12:51:28.157Z,4.28
2023-03-12T12:52:30.592Z,7.47
2023-03-12T12:53:41.988Z,4.55
2023-03-12T12:54:53.936Z,8.27
2023-03-12T12:56:02.846Z,6.40
2023-03-12T12:57:15.374Z,4.80
2023-03-12T12:58:24.348Z,8.07
2023-03-12T12:59:33.088Z,5.18
2023-03-12T13:00:47.038Z,5.85
2023-03-12T13:01:52.314Z,5.25
2023-03-12T13:02:56.403Z,6.68
2023-03-12T13:04:05.364Z,5.60
2023-03-12T13:05:21.431Z,6.82
2023-03-12T13:06:29.011Z,5.75
2023-03-12T13:07:35.209Z,4.35
2023-03-12T13:09:15.110Z,3.53
2023-03-12T13:10:48.521Z,8.10
2023-03-12T13:12:07.344Z,7.10
2023-03-12T13:13:18.518Z,7.05
2023-03-12T13:14:35.609Z,5.60
2023-03-12T13:15:43.465Z,10.40
2023-03-12T13:16:46.770Z,7.50
2023-03-12T13:18:06.622Z,8.88
2023-03-12T13:19:27.257Z,4.55
2023-03-12T13:20:33.742Z,6.00
2023-03-12T13:21:40.503Z,4.70
2023-03-12T13:22:58.498Z,7.03
2023-03-12T13:24:18.225Z,8.52
2023-03-12T13:25:34.842Z,5.90
2023-03-12T13:27:03.546Z,8.38
2023-03-12T13:28:35.518Z,6.60
2023-03-12T13:29:41.052Z,10.23
2023-03-12T13:30:48.547Z,4.97
2023-03-12T13:31:51.570Z,9.20
2023-03-12T13:33:10.962Z,10.32
2023-03-12T13:34:45.808Z,6.05
2023-03-12T13:36:23.711Z,6.10
2023-03-12T13:37:49.040Z,5.18
2023-03-12T13:38:58.320Z,7.30
2023-03-12T13:40:05.898Z,5.70
2023-03-12T13:41:09.073Z,11.18
2023-03-12T13:42:36.888Z,7.13
2023-03-12T13:43:52.678Z,9.52
2023-03-12T13:45:12.189Z,6.82
2023-03-12T13:46:44.846Z,6.82
2023-03-12T13:47:47.142Z,4.50
2023-03-12T13:48:50.945Z,7.50
2023-03-12T13:49:56.740Z,6.63
2023-03-12T13:51:01.500Z,6.78
2023-03-12T13:52:22.548Z,8.25
2023-03-12T13:53:27.922Z,6.13
2023-03-12T13:54:35.026Z,15.80
2023-03-12T13:55:40.967Z,6.07
2023-03-12T13:56:54.090Z,19.02
2023-03-12T13:58:03.755Z,8.38
2023-03-12T13:59:13.722Z,6.93
2023-03-12T14:00:20.825Z,5.28
2023-03-12T14:01:27.023Z,9.38
2023-03-12T14:02:33.609Z,11.45
2023-03-12T14:03:40.504Z,10.70
2023-03-12T14:04:43.781Z,8.55
2023-03-12T14:05:52.529Z,7.57
2023-03-12T14:07:09.818Z,9.45
2023-03-12T14:08:20.352Z,9.32
2023-03-12T14:09:33.374Z,6.57
2023-03-12T14:10:58.606Z,7.15
2023-03-12T14:12:08.685Z,8.10
2023-03-12T14:13:24.900Z,7.15
2023-03-12T14:14:58.666Z,8.25
2023-03-12T14:16:07.178Z,7.50
2023-03-12T14:17:16.572Z,9.43
2023-03-12T14:18:21.950Z,6.88
2023-03-12T14:19:26.119Z,7.22
2023-03-12T14:20:30.849Z,8.05
2023-03-12T14:21:39.866Z,7.85
2023-03-12T14:22:44.916Z,12.15
2023-03-12T14:23:51.560Z,8.02
2023-03-12T14:24:58.218Z,11.95
2023-03-12T14:26:04.578Z,6.05
2023-03-12T14:27:13.818Z,6.57
2023-03-12T14:28:20.886Z,10.45
2023-03-12T14:29:29.097Z,8.45
2023-03-12T14:30:45.676Z,8.90
2023-03-12T14:31:49.921Z,8.90
2023-03-12T14:32:56.825Z,11.68
2023-03-12T14:34:06.290Z,6.28
2023-03-12T14:35:17.971Z,8.07
2023-03-12T14:36:23.580Z,7.60
2023-03-12T14:37:32.079Z,11.50
2023-03-12T14:38:42.333Z,6.55